sensor_id;sensor_type;location;lat;lon;timestamp;P1;durP1;ratioP1;P2;durP2;ratioP2
15393;SDS011;7795;47.986;11.868;2023-02-28T00:01:17;2.50;;;2.30;;
15393;SDS011;7795;47.986;11.868;2023-02-28T00:03:43;3.63;;;2.50;;
15393;SDS011;7795;47.986;11.868;2023-02-28T00:06:09;2.50;;;2.30;;
15393;SDS011;7795;47.986;11.868;2023-02-28T00:08:35;2.43;;;2.23;;
15393;SDS011;7795;47.986;11.868;2023-02-28T00:11:01;2.90;;;2.60;;
15393;SDS011;7795;47.986;11.868;2023-02-28T00:13:29;2.73;;;2.10;;
15393;SDS011;7795;47.986;11.868;2023-02-28T00:15:58;2.27;;;2.00;;
15393;SDS011;7795;47.986;11.868;2023-02-28T00:18:25;2.50;;;2.30;;
15393;SDS011;7795;47.986;11.868;2023-02-28T00:20:51;3.80;;;2.50;;
15393;SDS011;7795;47.986;11.868;2023-02-28T00:23:16;2.37;;;2.17;;
15393;SDS011;7795;47.986;11.868;2023-02-28T00:25:42;2.93;;;2.63;;
15393;SDS011;7795;47.986;11.868;2023-02-28T00:28:08;2.40;;;2.20;;
15393;SDS011;7795;47.986;11.868;2023-02-28T00:30:35;3.27;;;2.37;;
15393;SDS011;7795;47.986;11.868;2023-02-28T00:33:01;2.60;;;2.40;;
15393;SDS011;7795;47.986;11.868;2023-02-28T00:35:26;2.70;;;2.43;;
15393;SDS011;7795;47.986;11.868;2023-02-28T00:37:52;3.07;;;2.77;;
15393;SDS011;7795;47.986;11.868;2023-02-28T00:40:18;3.23;;;2.40;;
15393;SDS011;7795;47.986;11.868;2023-02-28T00:42:44;3.00;;;2.50;;
15393;SDS011;7795;47.986;11.868;2023-02-28T00:45:10;3.60;;;2.87;;
15393;SDS011;7795;47.986;11.868;2023-02-28T00:47:37;3.07;;;2.53;;
15393;SDS011;7795;47.986;11.868;2023-02-28T00:50:03;2.77;;;2.57;;
15393;SDS011;7795;47.986;11.868;2023-02-28T00:52:29;3.03;;;2.53;;
15393;SDS011;7795;47.986;11.868;2023-02-28T00:54:55;2.73;;;2.53;;
15393;SDS011;7795;47.986;11.868;2023-02-28T00:57:21;3.47;;;2.70;;
15393;SDS011;7795;47.986;11.868;2023-02-28T00:59:47;2.60;;;2.40;;
15393;SDS011;7795;47.986;11.868;2023-02-28T01:02:13;2.93;;;2.37;;
15393;SDS011;7795;47.986;11.868;2023-02-28T01:04:40;2.77;;;2.57;;
15393;SDS011;7795;47.986;11.868;2023-02-28T01:07:06;3.30;;;2.67;;
15393;SDS011;7795;47.986;11.868;2023-02-28T01:09:31;3.63;;;2.50;;
15393;SDS011;7795;47.986;11.868;2023-02-28T01:11:57;2.53;;;2.33;;
15393;SDS011;7795;47.986;11.868;2023-02-28T01:14:23;2.83;;;2.63;;
15393;SDS011;7795;47.986;11.868;2023-02-28T01:16:49;3.17;;;2.57;;
15393;SDS011;7795;47.986;11.868;2023-02-28T01:19:14;3.30;;;2.93;;
15393;SDS011;7795;47.986;11.868;2023-02-28T01:21:42;3.00;;;2.40;;
15393;SDS011;7795;47.986;11.868;2023-02-28T01:24:08;3.43;;;2.33;;
15393;SDS011;7795;47.986;11.868;2023-02-28T01:26:33;2.60;;;2.40;;
15393;SDS011;7795;47.986;11.868;2023-02-28T01:28:59;3.53;;;2.87;;
15393;SDS011;7795;47.986;11.868;2023-02-28T01:31:25;3.00;;;2.70;;
15393;SDS011;7795;47.986;11.868;2023-02-28T01:33:51;2.60;;;2.40;;
15393;SDS011;7795;47.986;11.868;2023-02-28T01:36:18;3.37;;;2.40;;
15393;SDS011;7795;47.986;11.868;2023-02-28T01:38:47;2.80;;;2.60;;
15393;SDS011;7795;47.986;11.868;2023-02-28T01:41:15;2.83;;;2.37;;
15393;SDS011;7795;47.986;11.868;2023-02-28T01:44:01;2.90;;;2.57;;
15393;SDS011;7795;47.986;11.868;2023-02-28T01:46:30;2.57;;;2.37;;
15393;SDS011;7795;47.986;11.868;2023-02-28T01:48:57;3.00;;;2.80;;
15393;SDS011;7795;47.986;11.868;2023-02-28T01:51:29;3.43;;;2.83;;
15393;SDS011;7795;47.986;11.868;2023-02-28T01:54:01;2.90;;;2.60;;
15393;SDS011;7795;47.986;11.868;2023-02-28T01:56:38;2.97;;;2.70;;
15393;SDS011;7795;47.986;11.868;2023-02-28T01:59:06;4.80;;;2.47;;
15393;SDS011;7795;47.986;11.868;2023-02-28T02:01:32;2.60;;;2.40;;
15393;SDS011;7795;47.986;11.868;2023-02-28T02:03:58;2.77;;;2.57;;
15393;SDS011;7795;47.986;11.868;2023-02-28T02:06:27;4.57;;;2.80;;
15393;SDS011;7795;47.986;11.868;2023-02-28T02:08:58;2.90;;;2.60;;
15393;SDS011;7795;47.986;11.868;2023-02-28T02:11:25;2.60;;;2.40;;
15393;SDS011;7795;47.986;11.868;2023-02-28T02:14:01;2.70;;;2.50;;
15393;SDS011;7795;47.986;11.868;2023-02-28T02:16:50;3.13;;;2.27;;
15393;SDS011;7795;47.986;11.868;2023-02-28T02:19:30;3.30;;;2.67;;
15393;SDS011;7795;47.986;11.868;2023-02-28T02:25:15;3.00;;;2.60;;
15393;SDS011;7795;47.986;11.868;2023-02-28T02:31:04;2.80;;;2.60;;
15393;SDS011;7795;47.986;11.868;2023-02-28T02:36:45;3.23;;;2.27;;
15393;SDS011;7795;47.986;11.868;2023-02-28T02:39:17;2.83;;;2.33;;
15393;SDS011;7795;47.986;11.868;2023-02-28T02:41:49;2.63;;;2.43;;
15393;SDS011;7795;47.986;11.868;2023-02-28T02:44:19;3.00;;;2.70;;
15393;SDS011;7795;47.986;11.868;2023-02-28T02:46:50;5.47;;;2.57;;
15393;SDS011;7795;47.986;11.868;2023-02-28T02:49:22;3.23;;;2.77;;
15393;SDS011;7795;47.986;11.868;2023-02-28T02:51:53;3.03;;;2.73;;
15393;SDS011;7795;47.986;11.868;2023-02-28T02:54:22;3.00;;;2.60;;
15393;SDS011;7795;47.986;11.868;2023-02-28T02:56:53;2.63;;;2.30;;
15393;SDS011;7795;47.986;11.868;2023-02-28T02:59:22;3.27;;;2.97;;
15393;SDS011;7795;47.986;11.868;2023-02-28T03:01:51;3.13;;;2.83;;
15393;SDS011;7795;47.986;11.868;2023-02-28T03:04:19;3.20;;;2.90;;
15393;SDS011;7795;47.986;11.868;2023-02-28T03:06:50;3.60;;;2.87;;
15393;SDS011;7795;47.986;11.868;2023-02-28T03:09:19;3.90;;;2.83;;
15393;SDS011;7795;47.986;11.868;2023-02-28T03:11:45;3.90;;;3.10;;
15393;SDS011;7795;47.986;11.868;2023-02-28T03:14:16;3.73;;;3.20;;
15393;SDS011;7795;47.986;11.868;2023-02-28T03:16:57;2.60;;;2.40;;
15393;SDS011;7795;47.986;11.868;2023-02-28T03:22:27;4.13;;;3.60;;
15393;SDS011;7795;47.986;11.868;2023-02-28T03:25:01;3.30;;;3.00;;
15393;SDS011;7795;47.986;11.868;2023-02-28T03:27:35;3.80;;;3.00;;
15393;SDS011;7795;47.986;11.868;2023-02-28T03:30:06;3.60;;;3.03;;
15393;SDS011;7795;47.986;11.868;2023-02-28T03:32:38;3.63;;;3.33;;
15393;SDS011;7795;47.986;11.868;2023-02-28T03:35:12;3.83;;;3.20;;
15393;SDS011;7795;47.986;11.868;2023-02-28T03:37:47;3.40;;;3.10;;
15393;SDS011;7795;47.986;11.868;2023-02-28T03:40:15;3.60;;;3.30;;
15393;SDS011;7795;47.986;11.868;2023-02-28T03:42:44;4.63;;;3.23;;
15393;SDS011;7795;47.986;11.868;2023-02-28T03:45:15;5.10;;;3.40;;
15393;SDS011;7795;47.986;11.868;2023-02-28T03:47:45;4.63;;;3.43;;
15393;SDS011;7795;47.986;11.868;2023-02-28T03:50:16;4.93;;;4.00;;
15393;SDS011;7795;47.986;11.868;2023-02-28T03:52:46;4.63;;;3.63;;
15393;SDS011;7795;47.986;11.868;2023-02-28T03:55:14;4.27;;;3.40;;
15393;SDS011;7795;47.986;11.868;2023-02-28T03:57:43;4.67;;;3.50;;
15393;SDS011;7795;47.986;11.868;2023-02-28T04:00:18;5.43;;;3.60;;
15393;SDS011;7795;47.986;11.868;2023-02-28T04:02:49;4.43;;;3.40;;
15393;SDS011;7795;47.986;11.868;2023-02-28T04:05:19;3.80;;;3.50;;
15393;SDS011;7795;47.986;11.868;2023-02-28T04:07:45;4.80;;;3.73;;
15393;SDS011;7795;47.986;11.868;2023-02-28T04:10:11;4.83;;;3.97;;
15393;SDS011;7795;47.986;11.868;2023-02-28T04:12:37;4.80;;;4.00;;
15393;SDS011;7795;47.986;11.868;2023-02-28T04:15:04;6.20;;;4.40;;
15393;SDS011;7795;47.986;11.868;2023-02-28T04:17:30;4.30;;;3.90;;
15393;SDS011;7795;47.986;11.868;2023-02-28T04:19:56;6.23;;;5.10;;
15393;SDS011;7795;47.986;11.868;2023-02-28T04:22:23;5.90;;;4.20;;
15393;SDS011;7795;47.986;11.868;2023-02-28T04:24:52;5.07;;;4.33;;
15393;SDS011;7795;47.986;11.868;2023-02-28T04:27:19;5.37;;;4.83;;
15393;SDS011;7795;47.986;11.868;2023-02-28T04:29:45;5.77;;;3.57;;
15393;SDS011;7795;47.986;11.868;2023-02-28T04:32:11;5.43;;;4.77;;
15393;SDS011;7795;47.986;11.868;2023-02-28T04:34:37;5.10;;;4.53;;
15393;SDS011;7795;47.986;11.868;2023-02-28T04:37:03;7.13;;;4.80;;
15393;SDS011;7795;47.986;11.868;2023-02-28T04:39:34;5.47;;;4.90;;
15393;SDS011;7795;47.986;11.868;2023-02-28T04:42:01;6.20;;;4.50;;
15393;SDS011;7795;47.986;11.868;2023-02-28T04:44:27;4.57;;;4.13;;
15393;SDS011;7795;47.986;11.868;2023-02-28T04:46:52;4.83;;;4.20;;
15393;SDS011;7795;47.986;11.868;2023-02-28T04:49:18;4.27;;;3.87;;
15393;SDS011;7795;47.986;11.868;2023-02-28T04:51:44;6.27;;;4.97;;
15393;SDS011;7795;47.986;11.868;2023-02-28T04:54:09;5.40;;;4.33;;
15393;SDS011;7795;47.986;11.868;2023-02-28T04:56:37;5.17;;;4.67;;
15393;SDS011;7795;47.986;11.868;2023-02-28T04:59:02;5.57;;;4.80;;
15393;SDS011;7795;47.986;11.868;2023-02-28T05:01:30;5.93;;;4.80;;
15393;SDS011;7795;47.986;11.868;2023-02-28T05:03:58;6.27;;;5.00;;
15393;SDS011;7795;47.986;11.868;2023-02-28T05:06:25;5.37;;;4.53;;
15393;SDS011;7795;47.986;11.868;2023-02-28T05:08:52;6.53;;;4.80;;
15393;SDS011;7795;47.986;11.868;2023-02-28T05:11:19;6.70;;;5.17;;
15393;SDS011;7795;47.986;11.868;2023-02-28T05:13:48;7.13;;;5.17;;
15393;SDS011;7795;47.986;11.868;2023-02-28T05:16:14;5.20;;;4.63;;
15393;SDS011;7795;47.986;11.868;2023-02-28T05:18:40;4.87;;;4.37;;
15393;SDS011;7795;47.986;11.868;2023-02-28T05:21:12;6.00;;;5.40;;
15393;SDS011;7795;47.986;11.868;2023-02-28T05:23:49;6.00;;;5.20;;
15393;SDS011;7795;47.986;11.868;2023-02-28T05:26:15;5.70;;;5.10;;
15393;SDS011;7795;47.986;11.868;2023-02-28T05:28:41;7.60;;;5.93;;
15393;SDS011;7795;47.986;11.868;2023-02-28T05:31:08;5.43;;;4.93;;
15393;SDS011;7795;47.986;11.868;2023-02-28T05:33:36;6.47;;;5.03;;
15393;SDS011;7795;47.986;11.868;2023-02-28T05:36:02;6.13;;;5.13;;
15393;SDS011;7795;47.986;11.868;2023-02-28T05:38:28;7.53;;;5.70;;
15393;SDS011;7795;47.986;11.868;2023-02-28T05:40:54;8.07;;;5.87;;
15393;SDS011;7795;47.986;11.868;2023-02-28T05:43:19;8.03;;;6.00;;
15393;SDS011;7795;47.986;11.868;2023-02-28T05:45:45;7.23;;;5.30;;
15393;SDS011;7795;47.986;11.868;2023-02-28T05:48:12;7.13;;;5.30;;
15393;SDS011;7795;47.986;11.868;2023-02-28T05:50:38;7.67;;;5.63;;
15393;SDS011;7795;47.986;11.868;2023-02-28T05:53:04;7.03;;;6.33;;
15393;SDS011;7795;47.986;11.868;2023-02-28T05:55:29;8.50;;;6.70;;
15393;SDS011;7795;47.986;11.868;2023-02-28T05:57:55;8.17;;;6.10;;
15393;SDS011;7795;47.986;11.868;2023-02-28T06:00:21;8.40;;;5.93;;
15393;SDS011;7795;47.986;11.868;2023-02-28T06:02:47;9.00;;;6.70;;
15393;SDS011;7795;47.986;11.868;2023-02-28T06:05:16;10.10;;;6.67;;
15393;SDS011;7795;47.986;11.868;2023-02-28T06:07:43;8.60;;;6.80;;
15393;SDS011;7795;47.986;11.868;2023-02-28T06:10:09;7.87;;;6.90;;
15393;SDS011;7795;47.986;11.868;2023-02-28T06:12:36;8.23;;;7.03;;
15393;SDS011;7795;47.986;11.868;2023-02-28T06:15:02;9.37;;;7.43;;
15393;SDS011;7795;47.986;11.868;2023-02-28T06:17:28;10.33;;;8.57;;
15393;SDS011;7795;47.986;11.868;2023-02-28T06:19:54;10.07;;;8.23;;
15393;SDS011;7795;47.986;11.868;2023-02-28T06:22:22;9.93;;;8.00;;
15393;SDS011;7795;47.986;11.868;2023-02-28T06:24:49;12.23;;;8.70;;
15393;SDS011;7795;47.986;11.868;2023-02-28T06:27:14;9.90;;;7.70;;
15393;SDS011;7795;47.986;11.868;2023-02-28T06:29:40;9.37;;;8.37;;
15393;SDS011;7795;47.986;11.868;2023-02-28T06:32:06;11.97;;;10.20;;
15393;SDS011;7795;47.986;11.868;2023-02-28T06:34:32;11.70;;;9.50;;
15393;SDS011;7795;47.986;11.868;2023-02-28T06:37:00;11.63;;;9.63;;
15393;SDS011;7795;47.986;11.868;2023-02-28T06:39:28;13.90;;;10.40;;
15393;SDS011;7795;47.986;11.868;2023-02-28T06:41:54;28.33;;;15.93;;
15393;SDS011;7795;47.986;11.868;2023-02-28T06:44:20;53.80;;;23.13;;
15393;SDS011;7795;47.986;11.868;2023-02-28T06:46:47;68.10;;;20.20;;
15393;SDS011;7795;47.986;11.868;2023-02-28T06:49:13;46.67;;;15.47;;
15393;SDS011;7795;47.986;11.868;2023-02-28T06:51:40;100.33;;;30.33;;
15393;SDS011;7795;47.986;11.868;2023-02-28T06:54:10;62.30;;;19.17;;
15393;SDS011;7795;47.986;11.868;2023-02-28T06:56:37;278.37;;;38.63;;
15393;SDS011;7795;47.986;11.868;2023-02-28T06:59:03;155.60;;;27.33;;
15393;SDS011;7795;47.986;11.868;2023-02-28T07:01:29;194.40;;;36.13;;
15393;SDS011;7795;47.986;11.868;2023-02-28T07:03:56;78.90;;;25.57;;
15393;SDS011;7795;47.986;11.868;2023-02-28T07:06:22;117.37;;;29.77;;
15393;SDS011;7795;47.986;11.868;2023-02-28T07:08:48;212.60;;;34.17;;
15393;SDS011;7795;47.986;11.868;2023-02-28T07:11:15;292.90;;;44.50;;
15393;SDS011;7795;47.986;11.868;2023-02-28T07:13:42;100.13;;;27.10;;
15393;SDS011;7795;47.986;11.868;2023-02-28T07:16:09;448.57;;;65.70;;
15393;SDS011;7795;47.986;11.868;2023-02-28T07:18:35;105.07;;;27.17;;
15393;SDS011;7795;47.986;11.868;2023-02-28T07:21:02;376.77;;;61.73;;
15393;SDS011;7795;47.986;11.868;2023-02-28T07:23:28;93.70;;;27.33;;
15393;SDS011;7795;47.986;11.868;2023-02-28T07:25:54;267.57;;;64.20;;
15393;SDS011;7795;47.986;11.868;2023-02-28T07:28:20;92.53;;;25.53;;
15393;SDS011;7795;47.986;11.868;2023-02-28T07:30:47;66.30;;;25.40;;
15393;SDS011;7795;47.986;11.868;2023-02-28T07:33:13;38.17;;;18.60;;
15393;SDS011;7795;47.986;11.868;2023-02-28T07:35:39;66.00;;;30.93;;
15393;SDS011;7795;47.986;11.868;2023-02-28T07:38:05;180.43;;;45.47;;
15393;SDS011;7795;47.986;11.868;2023-02-28T07:40:32;77.63;;;36.50;;
15393;SDS011;7795;47.986;11.868;2023-02-28T07:42:59;41.00;;;24.60;;
15393;SDS011;7795;47.986;11.868;2023-02-28T07:45:25;109.67;;;26.00;;
15393;SDS011;7795;47.986;11.868;2023-02-28T07:47:52;50.83;;;19.20;;
15393;SDS011;7795;47.986;11.868;2023-02-28T07:50:18;80.43;;;29.97;;
15393;SDS011;7795;47.986;11.868;2023-02-28T07:52:44;31.77;;;16.00;;
15393;SDS011;7795;47.986;11.868;2023-02-28T07:55:10;165.33;;;36.90;;
15393;SDS011;7795;47.986;11.868;2023-02-28T07:57:35;69.50;;;21.63;;
15393;SDS011;7795;47.986;11.868;2023-02-28T08:00:02;108.47;;;27.10;;
15393;SDS011;7795;47.986;11.868;2023-02-28T08:02:28;115.40;;;23.90;;
15393;SDS011;7795;47.986;11.868;2023-02-28T08:04:55;21.30;;;11.77;;
15393;SDS011;7795;47.986;11.868;2023-02-28T08:07:21;47.20;;;15.77;;
15393;SDS011;7795;47.986;11.868;2023-02-28T08:09:47;127.07;;;29.57;;
15393;SDS011;7795;47.986;11.868;2023-02-28T08:12:13;74.53;;;20.90;;
15393;SDS011;7795;47.986;11.868;2023-02-28T08:14:39;98.20;;;25.43;;
15393;SDS011;7795;47.986;11.868;2023-02-28T08:17:05;183.73;;;33.93;;
15393;SDS011;7795;47.986;11.868;2023-02-28T08:19:31;138.47;;;32.17;;
15393;SDS011;7795;47.986;11.868;2023-02-28T08:21:58;222.67;;;42.80;;
15393;SDS011;7795;47.986;11.868;2023-02-28T08:24:24;106.50;;;20.57;;
15393;SDS011;7795;47.986;11.868;2023-02-28T08:26:50;165.03;;;38.10;;
15393;SDS011;7795;47.986;11.868;2023-02-28T08:29:16;51.00;;;19.77;;
15393;SDS011;7795;47.986;11.868;2023-02-28T08:31:41;31.90;;;13.93;;
15393;SDS011;7795;47.986;11.868;2023-02-28T08:34:08;17.53;;;11.70;;
15393;SDS011;7795;47.986;11.868;2023-02-28T08:36:35;26.07;;;13.23;;
15393;SDS011;7795;47.986;11.868;2023-02-28T08:39:03;111.67;;;24.10;;
15393;SDS011;7795;47.986;11.868;2023-02-28T08:41:30;182.53;;;32.93;;
15393;SDS011;7795;47.986;11.868;2023-02-28T08:43:59;112.30;;;24.60;;
15393;SDS011;7795;47.986;11.868;2023-02-28T08:46:29;132.23;;;27.83;;
15393;SDS011;7795;47.986;11.868;2023-02-28T08:48:55;27.90;;;12.00;;
15393;SDS011;7795;47.986;11.868;2023-02-28T08:51:25;28.77;;;12.77;;
15393;SDS011;7795;47.986;11.868;2023-02-28T08:53:51;135.83;;;24.70;;
15393;SDS011;7795;47.986;11.868;2023-02-28T08:56:19;70.10;;;25.00;;
15393;SDS011;7795;47.986;11.868;2023-02-28T08:58:46;50.10;;;17.20;;
15393;SDS011;7795;47.986;11.868;2023-02-28T09:01:14;26.80;;;13.73;;
15393;SDS011;7795;47.986;11.868;2023-02-28T09:03:41;24.83;;;14.37;;
15393;SDS011;7795;47.986;11.868;2023-02-28T09:06:08;16.23;;;11.53;;
15393;SDS011;7795;47.986;11.868;2023-02-28T09:08:34;22.33;;;13.07;;
15393;SDS011;7795;47.986;11.868;2023-02-28T09:11:00;22.47;;;11.53;;
15393;SDS011;7795;47.986;11.868;2023-02-28T09:13:28;50.97;;;15.57;;
15393;SDS011;7795;47.986;11.868;2023-02-28T09:15:56;42.20;;;15.33;;
15393;SDS011;7795;47.986;11.868;2023-02-28T09:18:23;82.83;;;19.63;;
15393;SDS011;7795;47.986;11.868;2023-02-28T09:20:49;86.23;;;24.23;;
15393;SDS011;7795;47.986;11.868;2023-02-28T09:23:15;188.70;;;29.63;;
15393;SDS011;7795;47.986;11.868;2023-02-28T09:25:44;59.50;;;17.03;;
15393;SDS011;7795;47.986;11.868;2023-02-28T09:28:12;33.60;;;12.80;;
15393;SDS011;7795;47.986;11.868;2023-02-28T09:30:42;25.33;;;12.67;;
15393;SDS011;7795;47.986;11.868;2023-02-28T09:33:09;94.03;;;19.80;;
15393;SDS011;7795;47.986;11.868;2023-02-28T09:35:35;41.20;;;16.60;;
15393;SDS011;7795;47.986;11.868;2023-02-28T09:38:02;71.93;;;23.77;;
15393;SDS011;7795;47.986;11.868;2023-02-28T09:40:28;34.80;;;13.87;;
15393;SDS011;7795;47.986;11.868;2023-02-28T09:42:55;25.97;;;12.47;;
15393;SDS011;7795;47.986;11.868;2023-02-28T09:45:25;22.97;;;13.67;;
15393;SDS011;7795;47.986;11.868;2023-02-28T09:47:56;42.13;;;18.50;;
15393;SDS011;7795;47.986;11.868;2023-02-28T09:50:30;27.63;;;14.90;;
15393;SDS011;7795;47.986;11.868;2023-02-28T09:52:59;32.70;;;14.97;;
15393;SDS011;7795;47.986;11.868;2023-02-28T09:55:29;67.27;;;18.77;;
15393;SDS011;7795;47.986;11.868;2023-02-28T09:57:58;41.10;;;14.70;;
15393;SDS011;7795;47.986;11.868;2023-02-28T10:00:32;60.53;;;18.00;;
15393;SDS011;7795;47.986;11.868;2023-02-28T10:03:08;48.77;;;15.97;;
15393;SDS011;7795;47.986;11.868;2023-02-28T10:05:50;31.40;;;12.83;;
15393;SDS011;7795;47.986;11.868;2023-02-28T10:08:21;44.67;;;12.97;;
15393;SDS011;7795;47.986;11.868;2023-02-28T10:10:53;35.37;;;15.07;;
15393;SDS011;7795;47.986;11.868;2023-02-28T10:13:24;29.83;;;16.63;;
15393;SDS011;7795;47.986;11.868;2023-02-28T10:15:58;45.23;;;17.10;;
15393;SDS011;7795;47.986;11.868;2023-02-28T10:18:28;22.73;;;13.87;;
15393;SDS011;7795;47.986;11.868;2023-02-28T10:21:04;47.60;;;20.30;;
15393;SDS011;7795;47.986;11.868;2023-02-28T10:23:39;24.90;;;13.63;;
15393;SDS011;7795;47.986;11.868;2023-02-28T10:26:08;23.00;;;11.33;;
15393;SDS011;7795;47.986;11.868;2023-02-28T10:28:38;62.43;;;21.77;;
15393;SDS011;7795;47.986;11.868;2023-02-28T10:31:04;131.53;;;26.97;;
15393;SDS011;7795;47.986;11.868;2023-02-28T10:33:34;57.10;;;18.00;;
15393;SDS011;7795;47.986;11.868;2023-02-28T10:36:01;119.10;;;28.37;;
15393;SDS011;7795;47.986;11.868;2023-02-28T10:38:31;33.93;;;13.07;;
15393;SDS011;7795;47.986;11.868;2023-02-28T10:41:06;168.00;;;31.63;;
15393;SDS011;7795;47.986;11.868;2023-02-28T10:43:33;81.53;;;19.47;;
15393;SDS011;7795;47.986;11.868;2023-02-28T10:46:01;29.07;;;12.93;;
15393;SDS011;7795;47.986;11.868;2023-02-28T10:48:30;236.57;;;43.60;;
15393;SDS011;7795;47.986;11.868;2023-02-28T10:51:02;98.57;;;29.27;;
15393;SDS011;7795;47.986;11.868;2023-02-28T10:53:31;24.83;;;13.50;;
15393;SDS011;7795;47.986;11.868;2023-02-28T10:55:59;30.80;;;14.93;;
15393;SDS011;7795;47.986;11.868;2023-02-28T10:58:27;25.07;;;12.80;;
15393;SDS011;7795;47.986;11.868;2023-02-28T11:00:54;38.83;;;14.47;;
15393;SDS011;7795;47.986;11.868;2023-02-28T11:03:25;19.83;;;10.83;;
15393;SDS011;7795;47.986;11.868;2023-02-28T11:05:57;25.20;;;11.87;;
15393;SDS011;7795;47.986;11.868;2023-02-28T11:08:24;83.27;;;19.90;;
15393;SDS011;7795;47.986;11.868;2023-02-28T11:10:53;82.57;;;19.57;;
15393;SDS011;7795;47.986;11.868;2023-02-28T11:13:21;45.07;;;14.27;;
15393;SDS011;7795;47.986;11.868;2023-02-28T11:15:53;62.83;;;18.37;;
15393;SDS011;7795;47.986;11.868;2023-02-28T11:18:24;77.93;;;20.67;;
15393;SDS011;7795;47.986;11.868;2023-02-28T11:20:55;45.43;;;13.83;;
15393;SDS011;7795;47.986;11.868;2023-02-28T11:23:24;26.07;;;12.10;;
15393;SDS011;7795;47.986;11.868;2023-02-28T11:25:53;30.03;;;13.23;;
15393;SDS011;7795;47.986;11.868;2023-02-28T11:28:23;51.20;;;15.23;;
15393;SDS011;7795;47.986;11.868;2023-02-28T11:31:00;48.40;;;14.23;;
15393;SDS011;7795;47.986;11.868;2023-02-28T11:33:31;40.60;;;13.57;;
15393;SDS011;7795;47.986;11.868;2023-02-28T11:36:00;48.40;;;15.67;;
15393;SDS011;7795;47.986;11.868;2023-02-28T11:38:28;18.43;;;12.20;;
15393;SDS011;7795;47.986;11.868;2023-02-28T11:41:04;62.40;;;16.30;;
15393;SDS011;7795;47.986;11.868;2023-02-28T11:43:39;47.73;;;15.23;;
15393;SDS011;7795;47.986;11.868;2023-02-28T11:46:22;47.67;;;16.50;;
15393;SDS011;7795;47.986;11.868;2023-02-28T11:48:58;61.00;;;17.33;;
15393;SDS011;7795;47.986;11.868;2023-02-28T11:51:45;40.10;;;13.17;;
15393;SDS011;7795;47.986;11.868;2023-02-28T11:54:20;85.37;;;23.13;;
15393;SDS011;7795;47.986;11.868;2023-02-28T11:56:57;86.80;;;19.60;;
15393;SDS011;7795;47.986;11.868;2023-02-28T11:59:36;103.67;;;22.77;;
15393;SDS011;7795;47.986;11.868;2023-02-28T12:02:19;48.50;;;15.37;;
15393;SDS011;7795;47.986;11.868;2023-02-28T12:04:51;36.27;;;13.70;;
15393;SDS011;7795;47.986;11.868;2023-02-28T12:07:26;17.10;;;10.60;;
15393;SDS011;7795;47.986;11.868;2023-02-28T12:09:58;13.90;;;9.20;;
15393;SDS011;7795;47.986;11.868;2023-02-28T12:12:35;24.07;;;12.63;;
15393;SDS011;7795;47.986;11.868;2023-02-28T12:18:09;32.30;;;12.87;;
15393;SDS011;7795;47.986;11.868;2023-02-28T12:20:49;43.73;;;14.13;;
15393;SDS011;7795;47.986;11.868;2023-02-28T12:23:40;43.20;;;14.07;;
15393;SDS011;7795;47.986;11.868;2023-02-28T12:26:18;102.53;;;20.37;;
15393;SDS011;7795;47.986;11.868;2023-02-28T12:28:54;33.47;;;12.33;;
15393;SDS011;7795;47.986;11.868;2023-02-28T12:31:26;16.70;;;11.00;;
15393;SDS011;7795;47.986;11.868;2023-02-28T12:33:56;47.20;;;15.43;;
15393;SDS011;7795;47.986;11.868;2023-02-28T12:36:26;16.67;;;11.77;;
15393;SDS011;7795;47.986;11.868;2023-02-28T12:38:55;32.33;;;13.13;;
15393;SDS011;7795;47.986;11.868;2023-02-28T12:41:27;27.73;;;12.47;;
15393;SDS011;7795;47.986;11.868;2023-02-28T12:44:00;179.03;;;29.17;;
15393;SDS011;7795;47.986;11.868;2023-02-28T12:46:29;128.07;;;23.40;;
15393;SDS011;7795;47.986;11.868;2023-02-28T12:49:00;69.57;;;16.87;;
15393;SDS011;7795;47.986;11.868;2023-02-28T12:51:30;36.93;;;14.93;;
15393;SDS011;7795;47.986;11.868;2023-02-28T12:53:59;43.33;;;15.03;;
15393;SDS011;7795;47.986;11.868;2023-02-28T12:56:38;47.03;;;14.20;;
15393;SDS011;7795;47.986;11.868;2023-02-28T12:59:12;42.90;;;17.03;;
15393;SDS011;7795;47.986;11.868;2023-02-28T13:01:42;40.63;;;15.27;;
15393;SDS011;7795;47.986;11.868;2023-02-28T13:10:39;18.43;;;11.27;;
15393;SDS011;7795;47.986;11.868;2023-02-28T13:13:11;20.60;;;11.23;;
15393;SDS011;7795;47.986;11.868;2023-02-28T13:15:41;21.57;;;10.87;;
15393;SDS011;7795;47.986;11.868;2023-02-28T13:18:27;19.97;;;10.00;;
15393;SDS011;7795;47.986;11.868;2023-02-28T13:20:55;13.13;;;9.70;;
15393;SDS011;7795;47.986;11.868;2023-02-28T13:23:36;30.60;;;12.27;;
15393;SDS011;7795;47.986;11.868;2023-02-28T13:26:06;16.03;;;11.37;;
15393;SDS011;7795;47.986;11.868;2023-02-28T13:38:21;40.07;;;12.13;;
15393;SDS011;7795;47.986;11.868;2023-02-28T13:40:49;12.83;;;9.03;;
15393;SDS011;7795;47.986;11.868;2023-02-28T13:43:17;12.63;;;9.73;;
15393;SDS011;7795;47.986;11.868;2023-02-28T13:48:36;18.90;;;11.30;;
15393;SDS011;7795;47.986;11.868;2023-02-28T13:54:07;25.67;;;11.90;;
15393;SDS011;7795;47.986;11.868;2023-02-28T13:56:45;13.43;;;10.10;;
15393;SDS011;7795;47.986;11.868;2023-02-28T13:59:22;40.83;;;13.73;;
15393;SDS011;7795;47.986;11.868;2023-02-28T14:01:59;17.83;;;10.67;;
15393;SDS011;7795;47.986;11.868;2023-02-28T14:07:26;38.47;;;13.27;;
15393;SDS011;7795;47.986;11.868;2023-02-28T14:09:58;20.07;;;10.60;;
15393;SDS011;7795;47.986;11.868;2023-02-28T14:15:50;14.03;;;9.87;;
15393;SDS011;7795;47.986;11.868;2023-02-28T14:18:26;20.53;;;10.73;;
15393;SDS011;7795;47.986;11.868;2023-02-28T14:20:55;14.43;;;10.47;;
15393;SDS011;7795;47.986;11.868;2023-02-28T14:23:31;23.90;;;10.80;;
15393;SDS011;7795;47.986;11.868;2023-02-28T14:26:26;28.57;;;12.97;;
15393;SDS011;7795;47.986;11.868;2023-02-28T14:29:07;17.00;;;9.93;;
15393;SDS011;7795;47.986;11.868;2023-02-28T14:32:02;16.77;;;9.97;;
15393;SDS011;7795;47.986;11.868;2023-02-28T14:34:37;21.07;;;10.57;;
15393;SDS011;7795;47.986;11.868;2023-02-28T14:37:10;21.97;;;11.50;;
15393;SDS011;7795;47.986;11.868;2023-02-28T14:39:41;26.13;;;11.37;;
15393;SDS011;7795;47.986;11.868;2023-02-28T14:44:53;19.90;;;10.97;;
15393;SDS011;7795;47.986;11.868;2023-02-28T14:47:23;20.53;;;11.20;;
15393;SDS011;7795;47.986;11.868;2023-02-28T14:49:52;12.80;;;9.73;;
15393;SDS011;7795;47.986;11.868;2023-02-28T14:52:19;15.83;;;9.90;;
15393;SDS011;7795;47.986;11.868;2023-02-28T14:54:47;21.30;;;10.17;;
15393;SDS011;7795;47.986;11.868;2023-02-28T14:57:21;22.03;;;11.13;;
15393;SDS011;7795;47.986;11.868;2023-02-28T14:59:56;25.43;;;12.07;;
15393;SDS011;7795;47.986;11.868;2023-02-28T15:02:29;21.57;;;10.73;;
15393;SDS011;7795;47.986;11.868;2023-02-28T15:04:56;26.47;;;11.70;;
15393;SDS011;7795;47.986;11.868;2023-02-28T15:07:24;21.40;;;11.30;;
15393;SDS011;7795;47.986;11.868;2023-02-28T15:10:11;25.90;;;12.40;;
15393;SDS011;7795;47.986;11.868;2023-02-28T15:12:50;25.67;;;13.13;;
15393;SDS011;7795;47.986;11.868;2023-02-28T15:15:18;24.97;;;13.17;;
15393;SDS011;7795;47.986;11.868;2023-02-28T15:17:48;34.17;;;15.43;;
15393;SDS011;7795;47.986;11.868;2023-02-28T15:20:15;28.57;;;14.00;;
15393;SDS011;7795;47.986;11.868;2023-02-28T15:22:41;28.43;;;14.10;;
15393;SDS011;7795;47.986;11.868;2023-02-28T15:25:09;50.37;;;14.67;;
15393;SDS011;7795;47.986;11.868;2023-02-28T15:27:39;51.07;;;16.57;;
15393;SDS011;7795;47.986;11.868;2023-02-28T15:30:13;50.93;;;15.43;;